Time;durP1;ratioP1;P1;durP2;ratioP2;P2;SDS_P1;SDS_P2;PMS_P1;PMS_P2;Temp;Humidity;BMP_temperature;BMP_pressure;BME280_temperature;BME280_humidity;BME280_pressure;Samples;Min_cycle;Max_cycle;Signal;HPM_P1;HPM_P2
2022/10/17 00:01:29;;;;;;;21.23;12.18;;;;;;;13.09;100.00;101559.50;5078325;28;20044;-69
2022/10/17 00:03:54;;;;;;;25.98;11.23;;;;;;;13.42;100.00;101554.75;5079817;28;20044;-69
2022/10/17 00:06:20;;;;;;;21.90;12.85;;;;;;;13.42;100.00;101553.88;5071129;28;20051;-68
2022/10/17 00:08:45;;;;;;;22.13;12.13;;;;;;;13.41;100.00;101553.03;5067324;28;20037;-68
2022/10/17 00:11:18;;;;;;;26.13;11.32;;;;;;;13.61;100.00;101553.56;5078213;28;20040;-68
2022/10/17 00:13:45;;;;;;;16.58;11.00;;;;;;;13.66;100.00;101543.41;5073688;28;20035;-68
2022/10/17 00:16:10;;;;;;;21.75;10.73;;;;;;;13.73;100.00;101542.03;5079375;28;20063;-69
2022/10/17 00:18:37;;;;;;;24.05;10.60;;;;;;;13.91;100.00;101542.66;5079037;28;20040;-69
2022/10/17 00:21:03;;;;;;;19.50;10.15;;;;;;;14.01;100.00;101543.78;5076121;28;20873;-69
2022/10/17 00:23:29;;;;;;;18.40;10.48;;;;;;;14.05;100.00;101539.03;5079317;28;20040;-68
2022/10/17 00:26:03;;;;;;;18.25;10.20;;;;;;;14.12;100.00;101533.19;5075525;28;20035;-69
2022/10/17 00:28:29;;;;;;;18.45;10.45;;;;;;;14.21;100.00;101532.56;5079824;28;20043;-69
2022/10/17 00:31:01;;;;;;;20.42;10.75;;;;;;;14.14;100.00;101525.88;5076730;28;20492;-67
2022/10/17 00:33:27;;;;;;;18.25;10.10;;;;;;;14.13;100.00;101524.16;5080272;28;20044;-69
2022/10/17 00:36:15;;;;;;;20.27;12.02;;;;;;;14.30;100.00;101523.03;5093173;28;20067;-69
2022/10/17 00:38:43;;;;;;;19.48;9.73;;;;;;;14.34;100.00;101529.03;5077131;28;20641;-68
2022/10/17 00:41:11;;;;;;;18.13;10.35;;;;;;;14.29;100.00;101533.88;5095319;28;20448;-69
2022/10/17 00:44:00;;;;;;;18.92;10.23;;;;;;;14.37;100.00;101536.91;5079075;28;20039;-69
2022/10/17 00:46:28;;;;;;;19.73;10.52;;;;;;;14.36;100.00;101548.59;5072986;28;20050;-69
2022/10/17 00:48:56;;;;;;;20.27;10.98;;;;;;;14.35;100.00;101541.50;5066267;28;20032;-69
2022/10/17 00:51:29;;;;;;;22.60;10.20;;;;;;;14.34;100.00;101539.78;5070936;28;20563;-68
2022/10/17 00:53:55;;;;;;;22.33;10.25;;;;;;;14.36;100.00;101537.88;5077650;28;20902;-69
2022/10/17 00:56:21;;;;;;;23.13;11.23;;;;;;;14.35;100.00;101528.94;5076441;28;20153;-68
2022/10/17 00:58:47;;;;;;;22.90;10.27;;;;;;;14.48;100.00;101523.63;5078521;28;20468;-69
2022/10/17 01:01:13;;;;;;;25.15;10.10;;;;;;;14.54;100.00;101528.56;5071631;28;20043;-68
2022/10/17 01:03:39;;;;;;;21.42;10.95;;;;;;;14.52;100.00;101533.19;5076531;28;20435;-68
2022/10/17 01:06:04;;;;;;;22.60;10.18;;;;;;;14.58;100.00;101523.84;5071772;28;20028;-68
2022/10/17 01:08:30;;;;;;;18.58;9.90;;;;;;;14.58;100.00;101523.84;5068881;28;20056;-68
2022/10/17 01:11:21;;;;;;;15.48;10.00;;;;;;;14.56;100.00;101523.09;5069150;28;20032;-68
2022/10/17 01:14:11;;;;;;;15.80;9.32;;;;;;;14.52;100.00;101529.66;5088849;28;20060;-70
2022/10/17 01:17:00;;;;;;;21.98;11.32;;;;;;;14.46;100.00;101521.03;5093441;28;20578;-68
2022/10/17 01:19:35;;;;;;;22.38;11.45;;;;;;;14.54;100.00;101522.34;5074397;28;20040;-69
2022/10/17 01:22:09;;;;;;;17.40;10.40;;;;;;;14.47;100.00;101519.19;5073273;28;20032;-69
2022/10/17 01:25:08;;;;;;;19.73;10.43;;;;;;;14.42;100.00;101513.28;5068706;28;20036;-69
2022/10/17 01:27:57;;;;;;;20.73;10.95;;;;;;;14.43;100.00;101510.50;5075932;28;20063;-69
2022/10/17 01:30:48;;;;;;;19.77;11.00;;;;;;;14.38;100.00;101506.41;5074557;28;20059;-68
2022/10/17 01:33:37;;;;;;;19.38;10.80;;;;;;;14.41;100.00;101503.53;5089867;28;20190;-68
2022/10/17 01:36:25;;;;;;;25.10;10.95;;;;;;;14.41;100.00;101501.69;5097433;28;20040;-67
2022/10/17 01:39:05;;;;;;;25.35;11.57;;;;;;;14.41;100.00;101492.78;5065120;28;20207;-69
2022/10/17 01:41:37;;;;;;;27.70;13.60;;;;;;;14.40;100.00;101502.63;5074650;28;20087;-68
2022/10/17 01:44:08;;;;;;;19.90;11.83;;;;;;;14.40;100.00;101501.78;5070591;28;20039;-69
2022/10/17 01:46:45;;;;;;;20.60;11.85;;;;;;;14.38;100.00;101498.34;5073907;28;20113;-69
2022/10/17 01:49:14;;;;;;;22.58;12.00;;;;;;;14.32;100.00;101494.28;5075403;28;20036;-68
2022/10/17 01:51:59;;;;;;;22.88;11.20;;;;;;;14.35;100.00;101490.50;5087865;28;20452;-69
2022/10/17 01:54:31;;;;;;;20.08;10.90;;;;;;;14.31;100.00;101486.31;5091947;28;20036;-69
2022/10/17 01:57:03;;;;;;;;;;;;;;;14.44;100.00;101482.69;5077207;28;20040;-69
2022/10/17 01:59:37;;;;;;;19.67;11.68;;;;;;;14.46;100.00;101483.47;5092899;28;19947;-68
2022/10/17 02:02:05;;;;;;;24.70;12.18;;;;;;;14.45;100.00;101479.03;5077205;28;20048;-69
2022/10/17 02:04:30;;;;;;;23.90;12.02;;;;;;;14.47;100.00;101469.09;5080416;28;20113;-69
2022/10/17 02:06:56;;;;;;;24.60;13.02;;;;;;;14.51;100.00;101469.75;5080267;28;20036;-69
2022/10/17 02:09:24;;;;;;;22.08;12.18;;;;;;;14.56;100.00;101469.41;5063996;28;20028;-69
2022/10/17 02:12:08;;;;;;;21.83;13.02;;;;;;;14.57;100.00;101463.94;5075477;28;20039;-69
2022/10/17 02:14:36;;;;;;;20.13;11.30;;;;;;;14.57;100.00;101466.63;5081451;28;20036;-69
2022/10/17 02:17:17;;;;;;;24.35;12.90;;;;;;;14.51;100.00;101472.44;5080734;28;20028;-69
2022/10/17 02:19:58;;;;;;;26.20;12.85;;;;;;;14.52;100.00;101474.16;5060309;28;20040;-69
2022/10/17 02:22:43;;;;;;;;;;;;;;;14.47;100.00;101466.41;5100041;27;20051;-69
2022/10/17 02:25:35;;;;;;;20.67;12.75;;;;;;;14.47;100.00;101460.16;5077075;28;20014;-68
2022/10/17 02:28:20;;;;;;;29.38;13.77;;;;;;;14.45;100.00;101475.50;5069091;28;20115;-69
2022/10/17 02:31:05;;;;;;;23.23;12.13;;;;;;;14.58;100.00;101459.44;5085193;28;20047;-68
2022/10/17 02:33:43;;;;;;;23.90;12.93;;;;;;;14.53;100.00;101473.19;5077932;28;20055;-69
2022/10/17 02:36:15;;;;;;;23.33;12.27;;;;;;;14.55;100.00;101473.06;5075200;28;20051;-68
2022/10/17 02:38:42;;;;;;;;;;;;;;;14.65;100.00;101468.75;5080861;28;20051;-69
2022/10/17 02:41:12;;;;;;;21.25;11.88;;;;;;;14.57;100.00;101472.00;5072821;28;19977;-68
2022/10/17 02:43:38;;;;;;;24.23;12.93;;;;;;;14.55;100.00;101476.59;5075355;28;20085;-69
2022/10/17 02:46:05;;;;;;;23.83;12.80;;;;;;;14.62;100.00;101467.16;5077552;28;20142;-68
2022/10/17 02:48:41;;;;;;;23.48;12.18;;;;;;;14.72;100.00;101467.38;5078988;28;20073;-69
2022/10/17 02:51:16;;;;;;;23.10;13.38;;;;;;;14.62;100.00;101471.69;5074290;28;20071;-69
2022/10/17 02:54:00;;;;;;;23.65;12.45;;;;;;;14.61;100.00;101468.13;5074648;28;20179;-69
2022/10/17 02:56:29;;;;;;;23.25;12.90;;;;;;;14.59;100.00;101477.25;5091192;28;20032;-68
2022/10/17 02:58:58;;;;;;;22.23;13.45;;;;;;;14.49;100.00;101474.34;5076927;28;20959;-68
2022/10/17 03:01:24;;;;;;;21.92;13.02;;;;;;;14.60;100.00;101477.13;5072172;28;20382;-68
2022/10/17 03:03:49;;;;;;;23.77;13.10;;;;;;;14.50;100.00;101474.22;5073994;28;20043;-68
2022/10/17 03:06:15;;;;;;;20.45;12.55;;;;;;;14.52;100.00;101475.97;5077028;28;20028;-68
2022/10/17 03:08:41;;;;;;;21.55;12.68;;;;;;;14.49;100.00;101469.84;5072431;28;20036;-68
2022/10/17 03:11:06;;;;;;;23.02;13.23;;;;;;;14.56;100.00;101464.03;5080465;28;20028;-69
2022/10/17 03:13:32;;;;;;;24.63;13.45;;;;;;;14.50;100.00;101466.19;5077256;28;20032;-69
2022/10/17 03:15:58;;;;;;;22.85;12.52;;;;;;;14.43;100.00;101469.38;5076849;28;20035;-69
2022/10/17 03:18:24;;;;;;;19.67;12.77;;;;;;;14.56;100.00;101470.28;5070946;28;20039;-68
2022/10/17 03:20:54;;;;;;;24.67;13.10;;;;;;;14.66;100.00;101462.41;5078657;28;20057;-69
2022/10/17 03:23:20;;;;;;;23.50;12.70;;;;;;;14.64;100.00;101464.38;5076643;28;20036;-69
2022/10/17 03:25:46;;;;;;;22.95;13.90;;;;;;;14.64;100.00;101457.16;5068005;28;20390;-69
2022/10/17 03:28:13;;;;;;;24.48;12.27;;;;;;;14.63;100.00;101465.34;5071883;28;20040;-69
2022/10/17 03:30:38;;;;;;;26.75;12.40;;;;;;;14.67;100.00;101472.22;5075457;28;20035;-69
2022/10/17 03:33:04;;;;;;;27.42;13.23;;;;;;;14.73;100.00;101471.78;5078645;28;20500;-68
2022/10/17 03:35:29;;;;;;;25.00;13.07;;;;;;;14.70;100.00;101469.28;5095434;28;20047;-68
2022/10/17 03:37:55;;;;;;;22.17;12.30;;;;;;;14.73;100.00;101477.16;5073870;28;20032;-66
2022/10/17 03:40:22;;;;;;;23.17;12.65;;;;;;;14.66;100.00;101481.22;5094265;28;20040;-69
2022/10/17 03:42:47;;;;;;;24.40;12.18;;;;;;;14.66;100.00;101484.78;5071034;28;20042;-69
2022/10/17 03:45:13;;;;;;;21.95;12.85;;;;;;;14.63;100.00;101478.75;5069948;28;20031;-68
2022/10/17 03:47:38;;;;;;;19.25;12.55;;;;;;;14.63;100.00;101479.63;5076536;28;20081;-69
2022/10/17 03:50:04;;;;;;;21.83;12.25;;;;;;;14.58;100.00;101488.97;5075087;28;20044;-66
2022/10/17 03:52:33;;;;;;;22.80;13.20;;;;;;;14.73;100.00;101485.19;5068084;28;20032;-67
2022/10/17 03:54:59;;;;;;;22.17;11.80;;;;;;;14.77;100.00;101482.19;5078292;28;20495;-68
2022/10/17 03:57:25;;;;;;;24.75;13.35;;;;;;;14.80;100.00;101478.41;5078488;28;20043;-68
2022/10/17 03:59:53;;;;;;;19.60;12.85;;;;;;;14.77;100.00;101479.50;5087676;28;20036;-69
2022/10/17 04:02:20;;;;;;;25.15;13.90;;;;;;;14.79;100.00;101482.06;5093025;28;20083;-69
2022/10/17 04:04:46;;;;;;;21.52;11.88;;;;;;;14.87;100.00;101485.09;5078987;28;20135;-69
2022/10/17 04:07:11;;;;;;;24.45;11.75;;;;;;;14.88;100.00;101477.88;5075661;28;20575;-67
2022/10/17 04:09:40;;;;;;;21.20;12.55;;;;;;;14.80;100.00;101480.25;5074138;28;20582;-68
2022/10/17 04:12:18;;;;;;;23.08;11.38;;;;;;;14.74;100.00;101477.03;5070790;28;20098;-69
2022/10/17 04:14:43;;;;;;;23.48;12.52;;;;;;;14.76;100.00;101471.56;5079723;28;20032;-69
2022/10/17 04:17:09;;;;;;;17.50;11.60;;;;;;;14.77;100.00;101473.28;5065934;28;20485;-69
2022/10/17 04:19:35;;;;;;;18.75;12.05;;;;;;;14.69;100.00;101471.13;5077698;28;20688;-68
2022/10/17 04:22:02;;;;;;;19.42;12.10;;;;;;;14.68;100.00;101479.28;5078496;28;20040;-69
2022/10/17 04:24:29;;;;;;;22.83;11.65;;;;;;;14.67;100.00;101474.91;5084502;28;20090;-69
2022/10/17 04:27:04;;;;;;;20.15;11.30;;;;;;;14.77;100.00;101475.97;5076265;28;20656;-69
2022/10/17 04:29:32;;;;;;;19.30;11.77;;;;;;;14.70;100.00;101475.53;5076435;28;20132;-69
2022/10/17 04:32:24;;;;;;;23.05;10.23;;;;;;;14.76;100.00;101485.00;5076565;28;20040;-69
2022/10/17 04:34:57;;;;;;;19.77;10.80;;;;;;;14.70;100.00;101480.03;5073178;28;20032;-68
2022/10/17 04:37:23;;;;;;;18.77;11.50;;;;;;;14.68;100.00;101484.66;5076911;28;20067;-68
2022/10/17 04:39:50;;;;;;;21.27;10.45;;;;;;;14.74;100.00;101485.09;5072845;28;20039;-67
2022/10/17 04:42:16;;;;;;;18.83;11.30;;;;;;;14.74;100.00;101490.44;5077568;28;20043;-69
2022/10/17 04:44:42;;;;;;;20.90;10.68;;;;;;;14.78;100.00;101488.41;5078562;28;20024;-69
2022/10/17 04:47:07;;;;;;;16.15;10.32;;;;;;;14.76;100.00;101483.16;5083364;28;20035;-68
2022/10/17 04:49:33;;;;;;;23.02;11.10;;;;;;;14.86;100.00;101478.00;5079750;28;20040;-69
2022/10/17 04:52:06;;;;;;;19.70;11.57;;;;;;;14.73;100.00;101486.06;5073295;28;20068;-68
2022/10/17 04:54:41;;;;;;;17.33;10.95;;;;;;;14.78;100.00;101499.16;5076576;28;20036;-68
2022/10/17 04:57:08;;;;;;;20.38;10.75;;;;;;;14.71;100.00;101497.88;5064231;28;20043;-69
2022/10/17 04:59:34;;;;;;;20.45;11.15;;;;;;;14.88;100.00;101510.97;5071210;28;20036;-69
2022/10/17 05:02:18;;;;;;;23.63;10.63;;;;;;;14.93;100.00;101516.88;5078383;28;20059;-68
2022/10/17 05:04:44;;;;;;;20.05;11.80;;;;;;;14.94;100.00;101518.56;5076052;28;20084;-71
2022/10/17 05:07:11;;;;;;;22.17;11.40;;;;;;;14.93;100.00;101534.81;5075385;28;20115;-68
2022/10/17 05:09:45;;;;;;;20.17;11.50;;;;;;;14.89;100.00;101528.78;5079088;28;20832;-69
2022/10/17 05:12:11;;;;;;;19.25;11.27;;;;;;;14.85;100.00;101532.66;5075905;28;20028;-69
2022/10/17 05:14:39;;;;;;;18.92;11.27;;;;;;;14.80;100.00;101525.88;5075638;28;20583;-69
2022/10/17 05:17:05;;;;;;;17.27;10.63;;;;;;;14.74;100.00;101538.78;5073863;28;20047;-69
2022/10/17 05:19:31;;;;;;;18.77;10.95;;;;;;;14.75;100.00;101540.50;5065916;28;20032;-68
2022/10/17 05:21:56;;;;;;;19.27;11.50;;;;;;;14.71;100.00;101546.22;5083473;28;20035;-68
2022/10/17 05:24:22;;;;;;;19.50;11.57;;;;;;;14.66;100.00;101556.38;5073970;28;20964;-68
2022/10/17 05:26:50;;;;;;;17.83;11.15;;;;;;;14.53;100.00;101550.16;5066307;28;20113;-68
2022/10/17 05:29:16;;;;;;;21.58;13.27;;;;;;;14.58;100.00;101556.06;5065978;28;20051;-68
2022/10/17 05:31:47;;;;;;;22.10;12.53;;;;;;;14.47;100.00;101554.97;5074400;28;20830;-69
2022/10/17 05:34:13;;;;;;;19.55;10.98;;;;;;;14.38;100.00;101550.19;5079772;28;20040;-68
2022/10/17 05:36:38;;;;;;;21.38;11.45;;;;;;;14.33;100.00;101551.47;5075891;28;20804;-69
2022/10/17 05:39:04;;;;;;;30.20;12.43;;;;;;;14.27;100.00;101549.22;5079228;28;20076;-69
2022/10/17 05:41:32;;;;;;;19.52;10.77;;;;;;;14.31;100.00;101550.69;5075443;28;20043;-69
2022/10/17 05:43:57;;;;;;;25.08;12.18;;;;;;;14.32;100.00;101547.09;5081005;28;20389;-69
2022/10/17 05:46:50;;;;;;;21.40;11.73;;;;;;;14.34;100.00;101547.81;5069904;28;20048;-67
2022/10/17 05:49:16;;;;;;;20.40;11.75;;;;;;;14.33;100.00;101543.44;5083397;28;20544;-70
2022/10/17 05:51:41;;;;;;;27.33;11.18;;;;;;;14.29;100.00;101555.31;5072462;28;20178;-67
2022/10/17 05:54:07;;;;;;;18.05;11.05;;;;;;;14.23;100.00;101559.28;5088702;28;20105;-68
2022/10/17 05:56:34;;;;;;;21.38;12.57;;;;;;;14.39;100.00;101556.41;5081373;28;20169;-69
2022/10/17 05:59:01;;;;;;;27.17;12.07;;;;;;;14.37;100.00;101571.78;5081196;28;20643;-68
2022/10/17 06:01:36;;;;;;;23.00;12.40;;;;;;;14.39;100.00;101565.31;5079347;28;20047;-69
2022/10/17 06:04:02;;;;;;;18.08;10.80;;;;;;;14.38;100.00;101563.63;5075672;28;20040;-68
2022/10/17 06:06:27;;;;;;;17.05;10.95;;;;;;;14.42;100.00;101558.91;5082279;28;20028;-69
2022/10/17 06:08:54;;;;;;;20.95;11.82;;;;;;;14.38;100.00;101562.75;5072088;28;20036;-69
2022/10/17 06:11:25;;;;;;;15.95;10.30;;;;;;;14.53;100.00;101564.44;5079412;28;20059;-68
2022/10/17 06:13:50;;;;;;;19.75;11.27;;;;;;;14.61;100.00;101564.78;5076342;28;20792;-69
2022/10/17 06:16:21;;;;;;;17.33;10.45;;;;;;;14.64;100.00;101577.09;5079717;28;20146;-69
2022/10/17 06:18:47;;;;;;;19.13;11.32;;;;;;;14.64;100.00;101575.28;5089881;28;20027;-68
2022/10/17 06:21:18;;;;;;;20.75;10.85;;;;;;;14.80;100.00;101575.06;5077595;28;20090;-68
2022/10/17 06:23:45;;;;;;;20.95;11.77;;;;;;;14.85;100.00;101564.88;5078917;28;20085;-69
2022/10/17 06:26:30;;;;;;;25.40;11.77;;;;;;;14.88;100.00;101578.09;5080921;28;20076;-68
2022/10/17 06:28:56;;;;;;;17.48;10.23;;;;;;;14.95;100.00;101578.53;5073521;28;20218;-69
2022/10/17 06:31:22;;;;;;;15.95;10.35;;;;;;;14.97;100.00;101573.94;5096367;28;20496;-68
2022/10/17 06:33:47;;;;;;;18.30;10.18;;;;;;;14.94;100.00;101574.13;5081446;28;20061;-68
2022/10/17 06:36:13;;;;;;;20.73;10.80;;;;;;;15.12;100.00;101588.09;5074724;28;20043;-68
2022/10/17 06:38:39;;;;;;;21.73;11.95;;;;;;;15.22;100.00;101586.47;5073744;28;20081;-69
2022/10/17 06:41:13;;;;;;;21.70;10.63;;;;;;;15.28;100.00;101575.28;5079107;28;20100;-68
2022/10/17 06:43:46;;;;;;;16.88;10.18;;;;;;;15.43;100.00;101587.63;5075471;28;20064;-69
2022/10/17 06:46:25;;;;;;;21.42;10.35;;;;;;;15.53;100.00;101593.19;5070558;28;20059;-68
2022/10/17 06:49:05;;;;;;;16.10;10.32;;;;;;;15.48;100.00;101595.38;5073469;28;20060;-69
2022/10/17 06:51:41;;;;;;;15.88;9.77;;;;;;;15.59;100.00;101597.28;5072857;28;20020;-70
2022/10/17 06:54:08;;;;;;;18.73;9.60;;;;;;;15.64;100.00;101598.69;5074802;28;22198;-69
2022/10/17 06:56:52;;;;;;;21.30;9.43;;;;;;;15.72;100.00;101593.63;5073275;28;20042;-69
2022/10/17 06:59:36;;;;;;;20.42;9.32;;;;;;;15.74;100.00;101588.13;5076542;28;20028;-69
2022/10/17 07:02:16;;;;;;;17.25;8.57;;;;;;;15.82;100.00;101585.75;5090480;28;20059;-69
2022/10/17 07:04:45;;;;;;;14.43;9.10;;;;;;;15.84;100.00;101591.84;5078392;28;20834;-69
2022/10/17 07:07:11;;;;;;;19.77;9.35;;;;;;;15.80;100.00;101591.22;5057651;28;20051;-69
2022/10/17 07:09:38;;;;;;;16.52;8.77;;;;;;;15.95;100.00;101591.91;5076038;28;20397;-69
2022/10/17 07:12:06;;;;;;;14.80;8.93;;;;;;;15.92;100.00;101580.53;5074599;28;20047;-68
2022/10/17 07:14:33;;;;;;;13.68;8.25;;;;;;;15.99;100.00;101582.66;5076053;28;20089;-68
2022/10/17 07:16:59;;;;;;;14.20;8.48;;;;;;;16.12;100.00;101597.91;5089119;27;20036;-69
2022/10/17 07:19:27;;;;;;;13.18;8.40;;;;;;;16.19;100.00;101601.84;5073332;28;20035;-68
2022/10/17 07:21:53;;;;;;;11.90;7.65;;;;;;;16.35;100.00;101598.84;5089857;28;20028;-69
2022/10/17 07:24:19;;;;;;;17.27;8.48;;;;;;;16.37;100.00;101600.47;5071385;28;20040;-69
2022/10/17 07:26:49;;;;;;;16.88;8.00;;;;;;;16.49;100.00;101612.13;5079523;28;20032;-66
2022/10/17 07:29:16;;;;;;;16.05;7.70;;;;;;;16.65;100.00;101617.19;5072959;28;20044;-68
2022/10/17 07:31:47;;;;;;;15.20;7.75;;;;;;;16.68;100.00;101614.28;5078833;28;20143;-68
2022/10/17 07:34:13;;;;;;;14.70;8.13;;;;;;;16.90;100.00;101618.88;5072734;28;20515;-68
2022/10/17 07:36:39;;;;;;;11.68;7.35;;;;;;;17.14;100.00;101626.91;5077617;28;20032;-69
2022/10/17 07:39:06;;;;;;;14.07;7.65;;;;;;;17.21;100.00;101626.28;5076818;28;20655;-69
2022/10/17 07:41:33;;;;;;;12.63;7.85;;;;;;;17.50;100.00;101620.41;5074016;28;20800;-69
2022/10/17 07:43:59;;;;;;;11.23;7.75;;;;;;;17.60;100.00;101633.03;5077529;28;20032;-66
2022/10/17 07:46:30;;;;;;;10.40;7.57;;;;;;;17.98;100.00;101623.72;5078437;28;20047;-67
2022/10/17 07:48:56;;;;;;;14.55;6.93;;;;;;;17.83;100.00;101628.53;5077359;28;20036;-69
2022/10/17 07:51:21;;;;;;;12.13;6.82;;;;;;;17.78;100.00;101635.28;5094929;28;20036;-67
2022/10/17 07:53:47;;;;;;;11.73;6.93;;;;;;;17.67;100.00;101644.22;5078493;28;20044;-70
2022/10/17 07:56:12;;;;;;;11.95;6.85;;;;;;;17.75;100.00;101624.72;5073730;28;20047;-69
2022/10/17 07:58:38;;;;;;;10.88;6.70;;;;;;;17.67;100.00;101633.44;5074352;28;20849;-66
2022/10/17 08:01:07;;;;;;;12.68;7.03;;;;;;;17.73;100.00;101643.75;5077573;28;20035;-67
2022/10/17 08:03:33;;;;;;;11.77;7.05;;;;;;;17.66;100.00;101658.66;5078086;28;20839;-66
2022/10/17 08:06:00;;;;;;;10.15;6.75;;;;;;;17.57;100.00;101662.97;5079089;28;20062;-66
2022/10/17 08:08:26;;;;;;;9.45;6.47;;;;;;;17.48;100.00;101677.19;5087976;28;20040;-69
2022/10/17 08:10:53;;;;;;;12.40;6.45;;;;;;;17.29;100.00;101685.84;5078467;28;20452;-67
2022/10/17 08:13:19;;;;;;;15.77;6.70;;;;;;;17.18;100.00;101683.16;5069582;28;20036;-67
2022/10/17 08:15:46;;;;;;;12.02;7.20;;;;;;;17.06;100.00;101682.25;5075661;28;20032;-66
2022/10/17 08:18:13;;;;;;;12.32;6.72;;;;;;;17.01;100.00;101697.06;5078649;28;20469;-67
2022/10/17 08:20:39;;;;;;;11.52;7.15;;;;;;;16.94;100.00;101698.50;5077413;28;20826;-67
2022/10/17 08:23:04;;;;;;;10.05;6.75;;;;;;;16.90;100.00;101716.72;5071599;28;20036;-70
2022/10/17 08:25:30;;;;;;;13.95;7.65;;;;;;;16.79;100.00;101728.34;5074669;28;20047;-70
2022/10/17 08:27:57;;;;;;;11.23;8.00;;;;;;;16.81;100.00;101742.53;5077311;28;20036;-67
2022/10/17 08:30:22;;;;;;;13.05;7.28;;;;;;;16.72;100.00;101754.03;5079250;28;20126;-69
2022/10/17 08:32:48;;;;;;;13.00;6.47;;;;;;;16.67;100.00;101744.53;5058890;28;20035;-68
2022/10/17 08:35:13;;;;;;;15.38;7.07;;;;;;;16.69;100.00;101764.13;5076103;28;20040;-67
2022/10/17 08:37:39;;;;;;;14.88;7.25;;;;;;;16.65;100.00;101751.84;5076147;28;20541;-67
2022/10/17 08:40:05;;;;;;;11.60;7.80;;;;;;;16.68;100.00;101746.25;5074272;28;20481;-68
2022/10/17 08:43:03;;;;;;;18.08;7.13;;;;;;;16.67;100.00;101758.00;5079665;28;20059;-66
2022/10/17 08:45:44;;;;;;;12.20;7.20;;;;;;;16.76;100.00;101750.09;5070352;28;20097;-66
2022/10/17 08:48:14;;;;;;;14.30;7.70;;;;;;;16.68;100.00;101749.78;5074818;28;20042;-66
2022/10/17 08:50:51;;;;;;;10.95;6.80;;;;;;;16.72;100.00;101735.16;5079966;28;20043;-68
2022/10/17 08:53:38;;;;;;;15.50;7.72;;;;;;;16.79;100.00;101746.34;5078017;28;20042;-66
2022/10/17 08:56:17;;;;;;;12.10;7.80;;;;;;;16.65;100.00;101752.72;5069811;28;20826;-67
2022/10/17 08:58:42;;;;;;;13.70;7.85;;;;;;;16.65;100.00;101784.16;5076491;28;20123;-66
2022/10/17 09:01:27;;;;;;;14.45;8.90;;;;;;;16.63;100.00;101811.22;5078351;28;20040;-67
2022/10/17 09:04:34;;;;;;;12.88;8.13;;;;;;;16.51;100.00;101822.88;5071647;28;20702;-66
2022/10/17 09:07:03;;;;;;;15.07;8.98;;;;;;;16.46;100.00;101814.28;5072403;28;20055;-67
2022/10/17 09:10:14;;;;;;;22.52;10.73;;;;;;;16.30;100.00;101828.84;5095370;27;20041;-66
2022/10/17 09:13:17;;;;;;;17.40;9.73;;;;;;;16.24;100.00;101814.97;5074381;28;20040;-67
2022/10/17 09:16:01;;;;;;;25.63;10.82;;;;;;;16.26;100.00;101802.25;5089615;28;20078;-67
2022/10/17 09:18:31;;;;;;;17.88;10.73;;;;;;;16.42;100.00;101813.66;5077138;28;20035;-66
2022/10/17 09:21:30;;;;;;;19.75;10.95;;;;;;;16.38;100.00;101811.28;5074472;28;20039;-67
2022/10/17 09:24:10;;;;;;;18.08;10.60;;;;;;;16.47;100.00;101807.94;5066761;28;20144;-67
2022/10/17 09:26:38;;;;;;;24.92;12.10;;;;;;;16.64;100.00;101802.16;5093375;28;20036;-68
2022/10/17 09:29:14;;;;;;;20.25;11.02;;;;;;;16.68;100.00;101795.59;5070216;28;20070;-66
2022/10/17 09:31:46;;;;;;;19.38;9.25;;;;;;;16.61;100.00;101805.06;5074610;28;20101;-67
2022/10/17 09:34:11;;;;;;;14.05;9.32;;;;;;;16.55;100.00;101811.78;5074437;28;20109;-67
2022/10/17 09:36:39;;;;;;;12.25;9.10;;;;;;;16.56;100.00;101801.84;5064880;28;20044;-67
2022/10/17 09:39:12;;;;;;;22.67;9.27;;;;;;;16.66;100.00;101796.66;5070326;28;20032;-67
2022/10/17 09:41:43;;;;;;;13.45;8.55;;;;;;;16.54;100.00;101798.44;5071375;28;20036;-67
2022/10/17 09:44:20;;;;;;;13.38;8.43;;;;;;;16.56;100.00;101805.41;5074346;28;20040;-67
2022/10/17 09:46:54;;;;;;;16.23;8.57;;;;;;;16.54;100.00;101818.13;5077590;28;20039;-67
2022/10/17 09:49:28;;;;;;;12.48;7.65;;;;;;;16.49;100.00;101832.91;5075687;28;20440;-67
2022/10/17 09:51:53;;;;;;;12.93;8.15;;;;;;;16.52;100.00;101820.09;5071414;28;20596;-66
2022/10/17 09:54:24;;;;;;;18.08;8.45;;;;;;;16.60;100.00;101835.66;5069178;28;20044;-67
2022/10/17 09:56:57;;;;;;;12.80;7.70;;;;;;;16.55;100.00;101840.53;5074761;28;20662;-68
2022/10/17 09:59:34;;;;;;;13.95;8.32;;;;;;;16.48;100.00;101875.13;5076500;28;20075;-67
2022/10/17 10:02:27;;;;;;;15.63;8.65;;;;;;;16.36;100.00;101916.38;5077842;28;20040;-66
2022/10/17 10:04:56;;;;;;;17.95;8.50;;;;;;;16.28;100.00;101899.91;5065556;28;20190;-67
2022/10/17 10:07:24;;;;;;;14.65;8.68;;;;;;;16.21;100.00;101866.31;5073222;28;20036;-67
2022/10/17 10:09:50;;;;;;;14.50;8.68;;;;;;;16.20;100.00;101821.53;5081158;28;20044;-67
2022/10/17 10:12:28;;;;;;;16.05;9.02;;;;;;;16.17;100.00;101825.31;5076744;28;20040;-67
2022/10/17 10:14:54;;;;;;;15.52;8.60;;;;;;;16.21;100.00;101786.44;5073229;28;20044;-67
2022/10/17 10:17:32;;;;;;;16.20;9.27;;;;;;;16.23;100.00;101787.19;5072924;28;20048;-71
2022/10/17 10:19:58;;;;;;;16.95;9.93;;;;;;;16.33;100.00;101808.94;5076695;28;20032;-68
2022/10/17 10:22:24;;;;;;;17.75;9.85;;;;;;;16.34;100.00;101809.78;5069165;28;20055;-68
2022/10/17 10:25:15;;;;;;;19.38;10.63;;;;;;;16.57;100.00;101817.91;5074209;28;20076;-68
2022/10/17 10:27:43;;;;;;;21.55;11.50;;;;;;;16.61;100.00;101850.00;5081531;28;20061;-68
2022/10/17 10:30:24;;;;;;;21.27;12.32;;;;;;;16.69;100.00;101864.63;5079180;28;20843;-68
2022/10/17 10:32:50;;;;;;;19.63;10.57;;;;;;;16.64;100.00;101860.56;5077003;28;20121;-68
2022/10/17 10:35:34;;;;;;;23.23;12.10;;;;;;;16.63;100.00;101861.53;5083428;28;20056;-67
2022/10/17 10:38:02;;;;;;;22.48;12.48;;;;;;;16.51;100.00;101893.75;5076909;28;20762;-68
2022/10/17 10:40:34;;;;;;;22.98;12.80;;;;;;;16.44;100.00;101856.59;5081071;28;20054;-68
2022/10/17 10:43:00;;;;;;;24.52;12.48;;;;;;;16.56;100.00;101856.56;5081761;28;20046;-68
2022/10/17 10:45:28;;;;;;;23.55;12.88;;;;;;;16.65;100.00;101841.59;5077136;28;20044;-67
2022/10/17 10:47:56;;;;;;;17.00;11.15;;;;;;;16.82;100.00;101846.66;5077935;28;20048;-68
2022/10/17 10:50:45;;;;;;;21.98;11.73;;;;;;;16.82;100.00;101851.19;5079402;28;20036;-69
2022/10/17 10:53:19;;;;;;;19.83;9.88;;;;;;;16.88;100.00;101856.09;5080450;28;20040;-67
2022/10/17 10:55:44;;;;;;;18.20;9.98;;;;;;;16.91;100.00;101865.78;5081188;28;20093;-68
2022/10/17 10:58:38;;;;;;;17.02;10.02;;;;;;;16.83;100.00;101885.22;5078258;28;20040;-68
2022/10/17 11:01:11;;;;;;;22.35;10.13;;;;;;;16.96;100.00;101877.94;5063088;28;20068;-69
2022/10/17 11:04:35;;;;;;;15.65;9.10;;;;;;;16.99;100.00;101876.88;5075048;28;20550;-67
2022/10/17 11:07:23;;;;;;;17.90;9.07;;;;;;;17.06;100.00;101888.91;5014578;28;20038;-68
2022/10/17 11:09:55;;;;;;;17.42;9.45;;;;;;;17.07;100.00;101899.59;5012587;28;20064;-68
2022/10/17 11:12:26;;;;;;;16.02;8.57;;;;;;;17.03;100.00;101894.53;5010215;28;20221;-68
2022/10/17 11:15:06;;;;;;;15.93;8.90;;;;;;;17.15;100.00;101898.16;5013878;28;20868;-68
2022/10/17 11:18:01;;;;;;;15.38;9.57;;;;;;;17.03;100.00;101895.38;5006995;28;20043;-68
2022/10/17 11:20:39;;;;;;;13.55;9.45;;;;;;;17.22;100.00;101894.91;5001601;28;20049;-68
2022/10/17 11:23:30;;;;;;;18.23;8.85;;;;;;;17.30;100.00;101897.84;4991773;28;20049;-67
2022/10/17 11:26:01;;;;;;;16.40;9.20;;;;;;;17.29;100.00;101904.22;5011011;28;20136;-67